createdAt,value
2022-11-10T06:32:51.045Z,4.78
2022-11-10T06:35:18.590Z,3.72
2022-11-10T06:37:45.879Z,4.75
2022-11-10T06:40:14.236Z,3.90
2022-11-10T06:42:44.189Z,3.75
2022-11-10T06:45:11.489Z,3.40
2022-11-10T06:47:38.993Z,3.55
2022-11-10T06:50:06.745Z,3.83
2022-11-10T06:52:34.058Z,4.13
2022-11-10T06:55:02.656Z,6.07
2022-11-10T06:57:30.301Z,7.07
2022-11-10T06:59:58.235Z,6.40
2022-11-10T07:02:25.814Z,5.00
2022-11-10T07:04:55.148Z,3.45
2022-11-10T07:07:46.625Z,3.88
2022-11-10T07:10:41.086Z,4.65
2022-11-10T07:13:10.176Z,2.90
2022-11-10T07:15:37.818Z,3.78
2022-11-10T07:18:05.572Z,3.17
2022-11-10T07:20:33.215Z,3.50
2022-11-10T07:23:02.664Z,3.20
2022-11-10T07:25:34.057Z,3.72
2022-11-10T07:28:04.686Z,4.00
2022-11-10T07:30:34.281Z,4.93
2022-11-10T07:33:04.464Z,4.70
2022-11-10T07:35:33.184Z,3.75
2022-11-10T07:38:05.877Z,3.88
2022-11-10T07:40:34.187Z,4.82
2022-11-10T07:43:02.038Z,4.22
2022-11-10T07:45:29.835Z,7.30
2022-11-10T07:47:59.715Z,5.78
2022-11-10T07:50:27.490Z,5.68
2022-11-10T07:53:07.085Z,4.40
2022-11-10T07:55:36.728Z,4.43
2022-11-10T07:58:06.132Z,4.95
2022-11-10T08:00:34.121Z,4.00
2022-11-10T08:03:20.436Z,4.20
2022-11-10T08:05:48.188Z,3.63
2022-11-10T08:08:15.646Z,4.05
2022-11-10T08:10:43.513Z,4.35
2022-11-10T08:13:13.139Z,3.10
2022-11-10T08:15:41.292Z,3.35
2022-11-10T08:18:16.313Z,4.57
2022-11-10T08:20:44.268Z,4.32
2022-11-10T08:23:12.248Z,3.85
2022-11-10T08:25:40.341Z,3.40
2022-11-10T08:28:10.783Z,3.08
2022-11-10T08:30:40.710Z,3.05
2022-11-10T08:33:10.344Z,3.00
2022-11-10T08:35:44.340Z,4.45
2022-11-10T08:38:21.424Z,4.47
2022-11-10T08:40:49.666Z,10.75
2022-11-10T08:43:19.113Z,4.68
2022-11-10T08:45:46.966Z,1.70
2022-11-10T08:48:17.194Z,1.60
2022-11-10T08:50:52.197Z,1.88
2022-11-10T08:53:24.503Z,1.75
2022-11-10T09:02:42.867Z,2.50
2022-11-10T09:05:29.218Z,2.63
2022-11-10T09:07:57.249Z,0.90
2022-11-10T09:10:26.047Z,1.08
2022-11-10T09:12:54.468Z,1.38
2022-11-10T09:15:36.694Z,0.88
2022-11-10T09:18:07.128Z,1.23
2022-11-10T09:20:36.944Z,1.25
2022-11-10T09:23:11.665Z,1.17
2022-11-10T09:25:43.130Z,1.52
2022-11-10T09:28:19.372Z,3.53
2022-11-10T09:30:52.169Z,2.85
2022-11-10T09:33:23.095Z,3.15
2022-11-10T09:35:51.431Z,5.85
2022-11-10T09:38:22.397Z,2.90
2022-11-10T09:41:14.069Z,7.28
2022-11-10T09:47:18.975Z,3.55
2022-11-10T09:50:01.315Z,5.10
2022-11-10T09:52:34.367Z,2.55
2022-11-10T09:55:22.207Z,4.28
2022-11-10T09:58:02.162Z,1.77
2022-11-10T10:00:35.767Z,1.88
2022-11-10T10:03:06.638Z,1.20
2022-11-10T10:06:02.934Z,1.63
2022-11-10T10:11:53.518Z,1.48
2022-11-10T10:14:56.829Z,1.20
2022-11-10T10:20:05.674Z,1.13
2022-11-10T10:23:12.983Z,1.63
2022-11-10T10:25:47.981Z,2.35
2022-11-10T10:28:27.944Z,1.30
2022-11-10T10:31:07.275Z,1.52
2022-11-10T10:33:36.072Z,1.88
2022-11-10T10:36:40.341Z,0.85
2022-11-10T10:39:16.011Z,1.02
2022-11-10T10:41:46.312Z,1.10
2022-11-10T10:44:17.609Z,1.17
2022-11-10T10:46:59.023Z,0.95
2022-11-10T10:49:31.216Z,1.10
2022-11-10T10:52:13.362Z,1.95
2022-11-10T10:54:41.684Z,2.42
2022-11-10T10:57:29.448Z,0.80
2022-11-10T11:00:20.378Z,0.82
2022-11-10T11:03:13.150Z,0.80
2022-11-10T11:05:40.628Z,0.50
2022-11-10T11:08:19.922Z,1.27
2022-11-10T11:10:50.930Z,0.73
2022-11-10T11:13:26.126Z,0.60
2022-11-10T11:16:01.205Z,0.82
2022-11-10T11:18:33.671Z,0.73
2022-11-10T11:24:55.435Z,0.95
2022-11-10T11:27:53.457Z,1.27
2022-11-10T11:30:24.395Z,1.52
2022-11-10T11:33:16.291Z,0.80
2022-11-10T11:36:14.312Z,1.00
2022-11-10T11:39:00.971Z,0.88
2022-11-10T11:41:54.641Z,0.77
2022-11-10T11:44:38.434Z,0.77
2022-11-10T11:47:45.872Z,1.00
2022-11-10T11:50:36.907Z,1.20
2022-11-10T11:56:13.495Z,0.88
2022-11-10T11:58:51.202Z,1.20
2022-11-10T12:01:48.227Z,0.93
2022-11-10T12:04:45.849Z,1.17
2022-11-10T12:07:43.072Z,0.98
2022-11-10T12:10:42.971Z,1.98
2022-11-10T12:13:33.857Z,1.77
2022-11-10T12:16:25.071Z,2.45
2022-11-10T12:19:20.571Z,1.10
2022-11-10T12:25:06.113Z,0.93
2022-11-10T12:27:38.016Z,1.23
2022-11-10T12:30:11.272Z,2.17
2022-11-10T12:35:24.670Z,0.90
2022-11-10T12:38:10.065Z,1.05
2022-11-10T12:40:42.651Z,0.90
2022-11-10T12:43:34.076Z,1.00
2022-11-10T12:46:15.160Z,2.47
2022-11-10T12:49:12.686Z,0.98
2022-11-10T12:51:53.785Z,0.75
2022-11-10T12:54:29.329Z,1.00
2022-11-10T12:57:04.861Z,1.15
2022-11-10T12:59:37.837Z,1.00
2022-11-10T13:04:35.043Z,0.90
2022-11-10T13:07:08.905Z,1.60
2022-11-10T13:09:42.660Z,0.85
2022-11-10T13:14:48.823Z,0.88
2022-11-10T13:20:31.475Z,1.10
2022-11-10T13:22:59.103Z,1.17
2022-11-10T13:25:42.753Z,1.00
2022-11-10T13:28:10.640Z,0.85
2022-11-10T13:30:46.160Z,1.13
2022-11-10T13:33:36.011Z,1.25
2022-11-10T13:36:04.265Z,1.00
2022-11-10T13:43:56.453Z,1.80
2022-11-10T13:46:56.203Z,1.40
2022-11-10T13:49:45.247Z,2.58
2022-11-10T13:52:19.869Z,1.75
2022-11-10T13:55:26.997Z,1.10
2022-11-10T13:58:18.782Z,1.38
2022-11-10T14:00:50.755Z,1.10
2022-11-10T14:06:30.591Z,1.35
2022-11-10T14:09:05.953Z,1.02
2022-11-10T14:11:49.535Z,1.73
2022-11-10T14:14:27.058Z,1.38
2022-11-10T14:16:54.972Z,1.90
2022-11-10T14:22:27.726Z,0.93
2022-11-10T14:25:04.234Z,1.38
2022-11-10T14:27:35.148Z,1.80
2022-11-10T14:30:06.522Z,2.05
2022-11-10T14:32:34.154Z,1.85
2022-11-10T14:35:01.828Z,1.75
2022-11-10T14:37:29.917Z,1.52
2022-11-10T14:39:59.328Z,1.40
2022-11-10T14:42:31.257Z,1.52
2022-11-10T14:45:08.495Z,1.60
2022-11-10T14:47:37.578Z,1.60
2022-11-10T14:50:17.892Z,1.50
2022-11-10T14:52:48.317Z,2.05
2022-11-10T14:55:22.962Z,2.30
2022-11-10T14:58:11.955Z,1.45
2022-11-10T15:00:41.827Z,1.75
2022-11-10T15:03:15.205Z,1.58
2022-11-10T15:05:42.588Z,1.95
2022-11-10T15:08:10.988Z,1.60
2022-11-10T15:10:43.517Z,1.70
2022-11-10T15:15:49.791Z,1.52
2022-11-10T15:18:29.295Z,1.10
2022-11-10T15:21:03.284Z,1.50
2022-11-10T15:23:33.980Z,1.48
2022-11-10T15:26:03.287Z,2.00
2022-11-10T15:28:34.016Z,2.05
2022-11-10T15:31:05.670Z,2.22
2022-11-10T15:33:36.623Z,2.38
2022-11-10T15:36:32.159Z,1.73
2022-11-10T15:39:22.248Z,3.78
2022-11-10T15:41:56.675Z,2.13
2022-11-10T15:44:28.117Z,1.92
2022-11-10T15:46:56.954Z,2.10
2022-11-10T15:49:39.910Z,2.35
2022-11-10T15:52:15.760Z,2.10
2022-11-10T15:54:44.325Z,2.40
2022-11-10T15:57:17.300Z,2.20
2022-11-10T16:02:22.313Z,2.50
2022-11-10T16:04:56.992Z,2.53
2022-11-10T16:07:26.944Z,2.75
2022-11-10T16:09:54.141Z,2.33
2022-11-10T16:12:22.988Z,2.70
2022-11-10T16:14:52.772Z,2.35
2022-11-10T16:17:20.304Z,2.83
2022-11-10T16:19:48.289Z,2.90
2022-11-10T16:22:15.545Z,2.65
2022-11-10T16:24:42.815Z,3.53
2022-11-10T16:27:14.051Z,2.45
2022-11-10T16:29:43.049Z,2.70
2022-11-10T16:32:11.720Z,3.30
2022-11-10T16:34:38.984Z,2.63
2022-11-10T16:37:06.399Z,2.60
2022-11-10T16:39:33.664Z,2.50
2022-11-10T16:42:00.899Z,4.07
2022-11-10T16:44:28.050Z,2.47
2022-11-10T16:46:57.289Z,2.33
2022-11-10T16:49:33.012Z,2.80
2022-11-10T16:52:08.260Z,3.13
2022-11-10T16:54:35.621Z,3.13
2022-11-10T16:57:06.578Z,3.53
2022-11-10T16:59:34.146Z,2.63
